Observation data for Denver City on 08/08/2020      Previous  Date  Next       Current Mesonet Observations  Soil Data  Daily Summary Page  Observations in Plain Language
KDVS 080500Z 30004G9KT 23/18 A3017 RMK A01 T02300177  RH  076%=      5-min Rain = 0
KDVS 080505Z 31007G12KT 23/17 A3017 RMK A01 T02320173  RH  073%=      5-min Rain = 0
KDVS 080510Z 01004KT 24/17 A3016 RMK A01 T02350171  RH  071%=      5-min Rain = 0
KDVS 080515Z 12002KT 23/17 A3016 RMK A01 T02340169  RH  070%=      5-min Rain = 0
KDVS 080520Z 18003KT 24/16 A3016 RMK A01 T02380162  RH  066%=      5-min Rain = 0
KDVS 080525Z 06002KT 24/16 A3016 RMK A01 T02380164  RH  066%=      5-min Rain = 0
KDVS 080530Z 06005KT 24/17 A3016 RMK A01 T02350172  RH  071%=      5-min Rain = 0
KDVS 080535Z 07003KT 23/18 A3017 RMK A01 T02310176  RH  075%=      5-min Rain = 0
KDVS 080540Z 07005G10KT 23/18 A3017 RMK A01 T02300178  RH  077%=      5-min Rain = 0
KDVS 080545Z 08008KT 23/18 A3017 RMK A01 T02290177  RH  077%=      5-min Rain = 0
KDVS 080550Z 09007KT 23/18 A3017 RMK A01 T02280180  RH  078%=      5-min Rain = 0
KDVS 080555Z 09008KT 23/18 A3017 RMK A01 T02270180  RH  079%=      5-min Rain = 0
KDVS 080600Z 09008KT 23/18 A3017 RMK A01 T02270178  RH  078%=      5-min Rain = 0
KDVS 080605Z 08008KT 23/18 A3017 RMK A01 T02270175  RH  076%=      5-min Rain = 0
KDVS 080610Z 07008KT 23/17 A3017 RMK A01 T02290171  RH  074%=      5-min Rain = 0
KDVS 080615Z 08008KT 23/17 A3017 RMK A01 T02290169  RH  073%=      5-min Rain = 0
KDVS 080620Z 08006KT 23/17 A3017 RMK A01 T02280168  RH  072%=      5-min Rain = 0
KDVS 080625Z 10005KT 23/17 A3017 RMK A01 T02270167  RH  073%=      5-min Rain = 0
KDVS 080630Z 10006KT 23/17 A3017 RMK A01 T02260166  RH  073%=      5-min Rain = 0
KDVS 080635Z 12008KT 23/17 A3017 RMK A01 T02260165  RH  072%=      5-min Rain = 0
KDVS 080640Z 12008KT 23/16 A3016 RMK A01 T02290159  RH  068%=      5-min Rain = 0
KDVS 080645Z 11007KT 23/16 A3016 RMK A01 T02300158  RH  067%=      5-min Rain = 0
KDVS 080650Z 12006KT 23/16 A3016 RMK A01 T02280160  RH  069%=      5-min Rain = 0
KDVS 080655Z 13005KT 23/16 A3016 RMK A01 T02260162  RH  070%=      5-min Rain = 0
KDVS 080700Z 14006KT 23/16 A3016 RMK A01 T02250163  RH  071%=      5-min Rain = 0
KDVS 080705Z 14006KT 22/16 A3016 RMK A01 T02230164  RH  072%=      5-min Rain = 0
KDVS 080710Z 14005KT 22/17 A3016 RMK A01 T02230165  RH  073%=      5-min Rain = 0
KDVS 080715Z 15004KT 22/17 A3015 RMK A01 T02220166  RH  074%=      5-min Rain = 0
KDVS 080720Z 15004KT 22/17 A3015 RMK A01 T02210167  RH  075%=      5-min Rain = 0
KDVS 080725Z 16004KT 22/17 A3015 RMK A01 T02210168  RH  076%=      5-min Rain = 0
KDVS 080730Z 17004KT 22/17 A3015 RMK A01 T02210168  RH  076%=      5-min Rain = 0
KDVS 080735Z 17005KT 22/17 A3014 RMK A01 T02220168  RH  075%=      5-min Rain = 0
KDVS 080740Z 16005KT 22/17 A3014 RMK A01 T02230169  RH  075%=      5-min Rain = 0
KDVS 080745Z 16006KT 22/17 A3014 RMK A01 T02230169  RH  075%=      5-min Rain = 0
KDVS 080750Z 16006KT 22/17 A3014 RMK A01 T02240167  RH  074%=      5-min Rain = 0
KDVS 080755Z 17006KT 23/16 A3014 RMK A01 T02260164  RH  072%=      5-min Rain = 0
KDVS 080800Z 17006KT 23/16 A3014 RMK A01 T02270163  RH  070%=      5-min Rain = 0
KDVS 080805Z 17007KT 23/16 A3013 RMK A01 T02300162  RH  069%=      5-min Rain = 0
KDVS 080810Z 17008KT 23/16 A3013 RMK A01 T02330160  RH  066%=      5-min Rain = 0
KDVS 080815Z 17009KT 23/16 A3013 RMK A01 T02340160  RH  067%=      5-min Rain = 0
KDVS 080820Z 17009KT 23/16 A3013 RMK A01 T02330161  RH  067%=      5-min Rain = 0
KDVS 080825Z 17008KT 23/16 A3013 RMK A01 T02320162  RH  068%=      5-min Rain = 0
KDVS 080830Z 17009KT 23/16 A3013 RMK A01 T02310162  RH  068%=      5-min Rain = 0
KDVS 080835Z 17008KT 23/16 A3012 RMK A01 T02310164  RH  069%=      5-min Rain = 0
KDVS 080840Z 17008G13KT 23/17 A3012 RMK A01 T02300165  RH  070%=      5-min Rain = 0
KDVS 080845Z 17009KT 23/17 A3012 RMK A01 T02300165  RH  070%=      5-min Rain = 0
KDVS 080850Z 17009KT 23/17 A3012 RMK A01 T02300165  RH  070%=      5-min Rain = 0
KDVS 080855Z 17008KT 23/17 A3012 RMK A01 T02300165  RH  070%=      5-min Rain = 0
KDVS 080900Z 16008KT 23/17 A3012 RMK A01 T02300165  RH  070%=      5-min Rain = 0
KDVS 080905Z 17009KT 23/17 A3012 RMK A01 T02300165  RH  070%=      5-min Rain = 0
KDVS 080910Z 17009KT 23/17 A3011 RMK A01 T02300166  RH  071%=      5-min Rain = 0
KDVS 080915Z 17009KT 23/17 A3011 RMK A01 T02290166  RH  071%=      5-min Rain = 0
KDVS 080920Z 17009KT 23/17 A3011 RMK A01 T02300165  RH  070%=      5-min Rain = 0
KDVS 080925Z 17009KT 23/16 A3011 RMK A01 T02310163  RH  069%=      5-min Rain = 0
KDVS 080930Z 17010KT 23/16 A3011 RMK A01 T02330162  RH  068%=      5-min Rain = 0
KDVS 080935Z 16010KT 23/16 A301 RMK A01 T02330161  RH  067%=      5-min Rain = 0
KDVS 080940Z 16011KT 23/16 A301 RMK A01 T02320162  RH  068%=      5-min Rain = 0
KDVS 080945Z 16010KT 23/16 A301 RMK A01 T02310163  RH  069%=      5-min Rain = 0
KDVS 080950Z 16010KT 23/16 A301 RMK A01 T02290163  RH  070%=      5-min Rain = 0
KDVS 080955Z 16009KT 23/16 A301 RMK A01 T02290162  RH  069%=      5-min Rain = 0
KDVS 081000Z 16008KT 23/16 A301 RMK A01 T02270162  RH  070%=      5-min Rain = 0
KDVS 081005Z 17008KT 23/16 A301 RMK A01 T02270162  RH  070%=      5-min Rain = 0
KDVS 081010Z 18007KT 23/16 A301 RMK A01 T02260161  RH  070%=      5-min Rain = 0
KDVS 081015Z 18008KT 23/16 A301 RMK A01 T02260160  RH  070%=      5-min Rain = 0
KDVS 081020Z 18009KT 23/16 A301 RMK A01 T02260159  RH  069%=      5-min Rain = 0
KDVS 081025Z 18008KT 23/16 A301 RMK A01 T02260159  RH  069%=      5-min Rain = 0
KDVS 081030Z 18008KT 23/16 A301 RMK A01 T02260158  RH  069%=      5-min Rain = 0
KDVS 081035Z 19006KT 23/16 A3011 RMK A01 T02250159  RH  069%=      5-min Rain = 0
KDVS 081040Z 19007KT 22/16 A3011 RMK A01 T02230160  RH  071%=      5-min Rain = 0
KDVS 081045Z 18008KT 22/16 A3011 RMK A01 T02220158  RH  070%=      5-min Rain = 0
KDVS 081050Z 18008KT 22/16 A3011 RMK A01 T02230158  RH  070%=      5-min Rain = 0
KDVS 081055Z 18008KT 23/16 A3011 RMK A01 T02250157  RH  069%=      5-min Rain = 0
KDVS 081100Z 18008KT 23/16 A3011 RMK A01 T02260156  RH  068%=      5-min Rain = 0
KDVS 081105Z 18008KT 23/16 A3011 RMK A01 T02260156  RH  068%=      5-min Rain = 0
KDVS 081110Z 18008KT 23/16 A3011 RMK A01 T02260157  RH  068%=      5-min Rain = 0
KDVS 081115Z 18008KT 23/16 A3011 RMK A01 T02250157  RH  069%=      5-min Rain = 0
KDVS 081120Z 18008KT 22/16 A3011 RMK A01 T02240158  RH  069%=      5-min Rain = 0
KDVS 081125Z 18008KT 22/16 A3011 RMK A01 T02230158  RH  070%=      5-min Rain = 0
KDVS 081130Z 18008KT 22/16 A3011 RMK A01 T02220158  RH  070%=      5-min Rain = 0
KDVS 081135Z 18007KT 22/16 A3011 RMK A01 T02210159  RH  071%=      5-min Rain = 0
KDVS 081140Z 18008KT 22/16 A3011 RMK A01 T02190159  RH  072%=      5-min Rain = 0
KDVS 081145Z 18008KT 22/16 A3012 RMK A01 T02180159  RH  073%=      5-min Rain = 0
KDVS 081150Z 18008KT 22/16 A3012 RMK A01 T02190159  RH  072%=      5-min Rain = 0
KDVS 081155Z 18007KT 22/16 A3012 RMK A01 T02190159  RH  072%=      5-min Rain = 0
KDVS 081200Z 18006KT 22/16 A3012 RMK A01 T02180159  RH  072%=      5-min Rain = 0
KDVS 081205Z 18006KT 22/16 A3012 RMK A01 T02180159  RH  072%=      5-min Rain = 0
KDVS 081210Z 18007KT 22/16 A3012 RMK A01 T02180158  RH  072%=      5-min Rain = 0
KDVS 081215Z 19006KT 22/16 A3013 RMK A01 T02190158  RH  072%=      5-min Rain = 0
KDVS 081220Z 19006KT 22/16 A3013 RMK A01 T02190159  RH  072%=      5-min Rain = 0
KDVS 081225Z 19006KT 22/16 A3013 RMK A01 T02180159  RH  073%=      5-min Rain = 0
KDVS 081230Z 18007KT 22/16 A3013 RMK A01 T02160160  RH  074%=      5-min Rain = 0
KDVS 081235Z 19006KT 22/16 A3013 RMK A01 T02150160  RH  074%=      5-min Rain = 0
KDVS 081240Z 20005KT 22/16 A3014 RMK A01 T02160160  RH  074%=      5-min Rain = 0
KDVS 081245Z 19005KT 22/16 A3014 RMK A01 T02180162  RH  074%=      5-min Rain = 0
KDVS 081250Z 18007KT 22/16 A3014 RMK A01 T02200162  RH  073%=      5-min Rain = 0
KDVS 081255Z 20006KT 22/16 A3014 RMK A01 T02210162  RH  073%=      5-min Rain = 0
KDVS 081300Z 20005KT 22/16 A3014 RMK A01 T02220163  RH  073%=      5-min Rain = 0
KDVS 081305Z 21005KT 22/16 A3014 RMK A01 T02240164  RH  072%=      5-min Rain = 0
KDVS 081310Z 21006KT 23/17 A3014 RMK A01 T02270165  RH  071%=      5-min Rain = 0
KDVS 081315Z 20006KT 23/17 A3015 RMK A01 T02300165  RH  070%=      5-min Rain = 0
KDVS 081320Z 21006KT 23/17 A3015 RMK A01 T02320167  RH  070%=      5-min Rain = 0
KDVS 081325Z 20006KT 23/17 A3015 RMK A01 T02330167  RH  070%=      5-min Rain = 0
KDVS 081330Z 18007KT 24/17 A3015 RMK A01 T02350167  RH  069%=      5-min Rain = 0
KDVS 081335Z 18007KT 24/17 A3015 RMK A01 T02380166  RH  067%=      5-min Rain = 0
KDVS 081340Z 18010KT 24/17 A3015 RMK A01 T02420165  RH  065%=      5-min Rain = 0
KDVS 081345Z 18011KT 24/16 A3015 RMK A01 T02440163  RH  064%=      5-min Rain = 0
KDVS 081350Z 18011KT 25/16 A3015 RMK A01 T02470164  RH  063%=      5-min Rain = 0
KDVS 081355Z 18011KT 25/16 A3016 RMK A01 T02500164  RH  062%=      5-min Rain = 0
KDVS 081400Z 18012KT 25/16 A3016 RMK A01 T02540163  RH  060%=      5-min Rain = 0
KDVS 081405Z 18011KT 26/16 A3016 RMK A01 T02570164  RH  059%=      5-min Rain = 0
KDVS 081410Z 18012KT 26/16 A3016 RMK A01 T02570163  RH  059%=      5-min Rain = 0
KDVS 081415Z 19013KT 26/16 A3016 RMK A01 T02580163  RH  058%=      5-min Rain = 0
KDVS 081420Z 18013KT 26/16 A3016 RMK A01 T02620162  RH  057%=      5-min Rain = 0
KDVS 081425Z 19014KT 26/16 A3016 RMK A01 T02640162  RH  056%=      5-min Rain = 0
KDVS 081430Z 18015KT 26/16 A3016 RMK A01 T02640162  RH  056%=      5-min Rain = 0
KDVS 081435Z 18015KT 26/16 A3016 RMK A01 T02600161  RH  057%=      5-min Rain = 0
KDVS 081440Z 18015KT 26/16 A3016 RMK A01 T02600161  RH  057%=      5-min Rain = 0
KDVS 081445Z 18014KT 26/16 A3016 RMK A01 T02620161  RH  057%=      5-min Rain = 0
KDVS 081450Z 18015KT 26/16 A3016 RMK A01 T02640161  RH  056%=      5-min Rain = 0
KDVS 081455Z 17014G19KT 27/16 A3016 RMK A01 T02680162  RH  055%=      5-min Rain = 0
KDVS 081500Z 17014KT 27/16 A3016 RMK A01 T02730162  RH  053%=      5-min Rain = 0
KDVS 081505Z 18014KT 27/16 A3016 RMK A01 T02720161  RH  053%=      5-min Rain = 0
KDVS 081510Z 17014KT 27/16 A3016 RMK A01 T02700161  RH  054%=      5-min Rain = 0
KDVS 081515Z 17011G17KT 27/16 A3016 RMK A01 T02690162  RH  054%=      5-min Rain = 0
KDVS 081520Z 17011KT 28/16 A3016 RMK A01 T02750164  RH  053%=      5-min Rain = 0
KDVS 081525Z 19011G16KT 27/16 A3016 RMK A01 T02740161  RH  053%=      5-min Rain = 0
KDVS 081530Z 17012KT 28/16 A3016 RMK A01 T02760163  RH  053%=      5-min Rain = 0
KDVS 081535Z 18011KT 28/17 A3016 RMK A01 T02790165  RH  052%=      5-min Rain = 0
KDVS 081540Z 18012KT 28/16 A3016 RMK A01 T02790162  RH  051%=      5-min Rain = 0
KDVS 081545Z 19012KT 28/16 A3016 RMK A01 T02780163  RH  052%=      5-min Rain = 0
KDVS 081550Z 19012KT 28/16 A3016 RMK A01 T02800162  RH  051%=      5-min Rain = 0
KDVS 081555Z 19012G17KT 28/16 A3016 RMK A01 T02810163  RH  051%=      5-min Rain = 0
KDVS 081600Z 18012KT 28/16 A3016 RMK A01 T02830160  RH  050%=      5-min Rain = 0
KDVS 081605Z 19010KT 28/16 A3016 RMK A01 T02840162  RH  050%=      5-min Rain = 0
KDVS 081610Z 18009KT 29/16 A3016 RMK A01 T02870162  RH  049%=      5-min Rain = 0
KDVS 081615Z 19010G15KT 29/17 A3016 RMK A01 T02930166  RH  049%=      5-min Rain = 0
KDVS 081620Z 19011KT 29/16 A3016 RMK A01 T02920164  RH  048%=      5-min Rain = 0
KDVS 081625Z 19009KT 30/17 A3016 RMK A01 T02950166  RH  048%=      5-min Rain = 0
KDVS 081630Z 18011KT 30/16 A3016 RMK A01 T02970164  RH  047%=      5-min Rain = 0
KDVS 081635Z 18011KT 30/16 A3016 RMK A01 T02980162  RH  046%=      5-min Rain = 0
KDVS 081640Z 19011KT 30/16 A3016 RMK A01 T02960162  RH  047%=      5-min Rain = 0
KDVS 081645Z 18010KT 30/16 A3016 RMK A01 T03000161  RH  045%=      5-min Rain = 0
KDVS 081650Z 18010KT 30/16 A3016 RMK A01 T03040159  RH  044%=      5-min Rain = 0
KDVS 081655Z 18010G15KT 30/15 A3016 RMK A01 T03030154  RH  043%=      5-min Rain = 0
KDVS 081700Z 19009KT 30/16 A3016 RMK A01 T03020160  RH  044%=      5-min Rain = 0
KDVS 081705Z 18011G16KT 31/16 A3016 RMK A01 T03060155  RH  042%=      5-min Rain = 0
KDVS 081710Z 18009KT 31/16 A3016 RMK A01 T03050155  RH  042%=      5-min Rain = 0
KDVS 081715Z 19010G16KT 31/15 A3016 RMK A01 T03090154  RH  041%=      5-min Rain = 0
KDVS 081720Z 19010KT 31/15 A3015 RMK A01 T03090152  RH  040%=      5-min Rain = 0
KDVS 081725Z 18009KT 31/15 A3015 RMK A01 T03100153  RH  041%=      5-min Rain = 0
KDVS 081730Z 19011KT 31/15 A3015 RMK A01 T03120148  RH  039%=      5-min Rain = 0
KDVS 081735Z 18009G15KT 31/15 A3015 RMK A01 T03100151  RH  040%=      5-min Rain = 0
KDVS 081740Z 19011G16KT 31/15 A3015 RMK A01 T03120146  RH  038%=      5-min Rain = 0
KDVS 081745Z 19011G16KT 32/15 A3015 RMK A01 T03150148  RH  038%=      5-min Rain = 0
KDVS 081750Z 18007G15KT 31/15 A3015 RMK A01 T03130154  RH  040%=      5-min Rain = 0
KDVS 081755Z 19012KT 32/14 A3014 RMK A01 T03180144  RH  036%=      5-min Rain = 0
KDVS 081800Z 18013G18KT 32/14 A3014 RMK A01 T03210142  RH  035%=      5-min Rain = 0
KDVS 081805Z 18009KT 32/15 A3014 RMK A01 T03200153  RH  038%=      5-min Rain = 0
KDVS 081810Z 18010G15KT 32/14 A3014 RMK A01 T03220143  RH  035%=      5-min Rain = 0
KDVS 081815Z 17010G15KT 32/15 A3014 RMK A01 T03210147  RH  037%=      5-min Rain = 0
KDVS 081820Z 16012KT 32/14 A3014 RMK A01 T03230140  RH  035%=      5-min Rain = 0
KDVS 081825Z 17010KT 33/13 A3014 RMK A01 T03280133  RH  032%=      5-min Rain = 0
KDVS 081830Z 17012G17KT 33/12 A3013 RMK A01 T03310121  RH  029%=      5-min Rain = 0
KDVS 081835Z 17011G17KT 33/13 A3013 RMK A01 T03310125  RH  030%=      5-min Rain = 0
KDVS 081840Z 17011G18KT 33/12 A3013 RMK A01 T03320118  RH  028%=      5-min Rain = 0
KDVS 081845Z 16010G16KT 33/12 A3013 RMK A01 T03310121  RH  029%=      5-min Rain = 0
KDVS 081850Z 16012G18KT 33/11 A3013 RMK A01 T03340114  RH  027%=      5-min Rain = 0
KDVS 081855Z 16012G22KT 34/12 A3013 RMK A01 T03360115  RH  027%=      5-min Rain = 0
KDVS 081900Z 16010G15KT 34/12 A3013 RMK A01 T03360117  RH  027%=      5-min Rain = 0
KDVS 081905Z 17012G17KT 34/11 A3013 RMK A01 T03420113  RH  026%=      5-min Rain = 0
KDVS 081910Z 18010G17KT 34/12 A3012 RMK A01 T03380119  RH  028%=      5-min Rain = 0
KDVS 081915Z 15012KT 34/11 A3012 RMK A01 T03390114  RH  026%=      5-min Rain = 0
KDVS 081920Z 17010G17KT 34/11 A3012 RMK A01 T03390114  RH  026%=      5-min Rain = 0
KDVS 081925Z 15010G17KT 34/12 A3012 RMK A01 T03410123  RH  028%=      5-min Rain = 0
KDVS 081930Z 15012G17KT 34/12 A3012 RMK A01 T03410121  RH  027%=      5-min Rain = 0
KDVS 081935Z 16012G18KT 34/10 A3012 RMK A01 T03430102  RH  024%=      5-min Rain = 0
KDVS 081940Z 17012G17KT 34/10 A3012 RMK A01 T03440104  RH  024%=      5-min Rain = 0
KDVS 081945Z 16010G15KT 34/12 A3011 RMK A01 T03410124  RH  028%=      5-min Rain = 0
KDVS 081950Z 16010KT 35/11 A3011 RMK A01 T03460113  RH  025%=      5-min Rain = 0
KDVS 081955Z 18009G15KT 34/12 A3011 RMK A01 T03440121  RH  027%=      5-min Rain = 0
KDVS 082000Z 14012KT 35/12 A3011 RMK A01 T03460121  RH  027%=      5-min Rain = 0
KDVS 082005Z 15010G15KT 35/12 A3011 RMK A01 T03490117  RH  025%=      5-min Rain = 0
KDVS 082010Z 16011G18KT 35/12 A3011 RMK A01 T03490115  RH  025%=      5-min Rain = 0
KDVS 082015Z 17008G15KT 35/12 A3011 RMK A01 T03480116  RH  025%=      5-min Rain = 0
KDVS 082020Z 17011G17KT 35/12 A301 RMK A01 T03500117  RH  025%=      5-min Rain = 0
KDVS 082025Z 18009G16KT 35/12 A301 RMK A01 T03490119  RH  026%=      5-min Rain = 0
KDVS 082030Z 16009G15KT 35/12 A301 RMK A01 T03510117  RH  025%=      5-min Rain = 0
KDVS 082035Z 16013G20KT 35/12 A301 RMK A01 T03500118  RH  025%=      5-min Rain = 0
KDVS 082040Z 15009G14KT 35/12 A301 RMK A01 T03520118  RH  025%=      5-min Rain = 0
KDVS 082045Z 18011G17KT 35/12 A301 RMK A01 T03530119  RH  025%=      5-min Rain = 0
KDVS 082050Z 17011G19KT 36/12 A3009 RMK A01 T03580115  RH  024%=      5-min Rain = 0
KDVS 082055Z 17010G17KT 36/11 A3009 RMK A01 T03560110  RH  023%=      5-min Rain = 0
KDVS 082100Z 14011G18KT 36/10 A3009 RMK A01 T03550103  RH  022%=      5-min Rain = 0
KDVS 082105Z 14013KT 36/10 A3009 RMK A01 T03580097  RH  021%=      5-min Rain = 0
KDVS 082110Z 14012G17KT 36/10 A3009 RMK A01 T03580099  RH  021%=      5-min Rain = 0
KDVS 082115Z 14012KT 36/10 A3009 RMK A01 T03570100  RH  022%=      5-min Rain = 0
KDVS 082120Z 13008G13KT 35/10 A3008 RMK A01 T03540100  RH  022%=      5-min Rain = 0
KDVS 082125Z 16009G15KT 36/10 A3008 RMK A01 T03560100  RH  022%=      5-min Rain = 0
KDVS 082130Z 15011G20KT 36/10 A3008 RMK A01 T03570103  RH  022%=      5-min Rain = 0
KDVS 082135Z 14012KT 36/10 A3008 RMK A01 T03550103  RH  022%=      5-min Rain = 0
KDVS 082140Z 13010G15KT 36/10 A3008 RMK A01 T03560102  RH  022%=      5-min Rain = 0
KDVS 082145Z 14010G15KT 36/10 A3008 RMK A01 T03550100  RH  022%=      5-min Rain = 0
KDVS 082150Z 16009KT 36/10 A3008 RMK A01 T03590103  RH  022%=      5-min Rain = 0
KDVS 082155Z 15008G13KT 36/10 A3008 RMK A01 T03580101  RH  022%=      5-min Rain = 0
KDVS 082200Z 18008G15KT 36/10 A3007 RMK A01 T03550097  RH  021%=      5-min Rain = 0
KDVS 082205Z 16011G16KT 36/10 A3007 RMK A01 T03590096  RH  021%=      5-min Rain = 0
KDVS 082210Z 18010G15KT 36/10 A3007 RMK A01 T03580095  RH  021%=      5-min Rain = 0
KDVS 082215Z 16011KT 36/10 A3007 RMK A01 T03590099  RH  021%=      5-min Rain = 0
KDVS 082220Z 17012KT 36/10 A3007 RMK A01 T03590100  RH  021%=      5-min Rain = 0
KDVS 082225Z 16010G16KT 36/10 A3007 RMK A01 T03570096  RH  021%=      5-min Rain = 0
KDVS 082230Z 14010G19KT 36/09 A3007 RMK A01 T03600093  RH  020%=      5-min Rain = 0
KDVS 082235Z 15012G19KT 36/10 A3007 RMK A01 T03630095  RH  020%=      5-min Rain = 0
KDVS 082240Z 16010KT 36/09 A3007 RMK A01 T03610093  RH  020%=      5-min Rain = 0
KDVS 082245Z 16009G15KT 36/09 A3007 RMK A01 T03570093  RH  021%=      5-min Rain = 0
KDVS 082250Z 15011G17KT 36/10 A3007 RMK A01 T03580095  RH  021%=      5-min Rain = 0
KDVS 082255Z 15012G19KT 36/10 A3007 RMK A01 T03610095  RH  020%=      5-min Rain = 0
KDVS 082300Z 17012G17KT 36/09 A3007 RMK A01 T03570092  RH  021%=      5-min Rain = 0
KDVS 082305Z 19011KT 36/09 A3006 RMK A01 T03560092  RH  021%=      5-min Rain = 0
KDVS 082310Z 16012G18KT 36/09 A3006 RMK A01 T03550093  RH  021%=      5-min Rain = 0
KDVS 082315Z 15010KT 36/09 A3006 RMK A01 T03580094  RH  021%=      5-min Rain = 0
KDVS 082320Z 15013G18KT 36/09 A3006 RMK A01 T03590093  RH  020%=      5-min Rain = 0
KDVS 082325Z 15012KT 36/09 A3006 RMK A01 T03550090  RH  020%=      5-min Rain = 0
KDVS 082330Z 15011G17KT 36/09 A3006 RMK A01 T03570091  RH  020%=      5-min Rain = 0
KDVS 082335Z 14012G18KT 35/09 A3006 RMK A01 T03540092  RH  021%=      5-min Rain = 0
KDVS 082340Z 14011G19KT 35/09 A3006 RMK A01 T03530093  RH  021%=      5-min Rain = 0
KDVS 082345Z 17014G19KT 35/09 A3006 RMK A01 T03530094  RH  021%=      5-min Rain = 0
KDVS 082350Z 16013KT 35/10 A3006 RMK A01 T03520096  RH  022%=      5-min Rain = 0
KDVS 082355Z 15010G15KT 35/10 A3005 RMK A01 T03510097  RH  022%=      5-min Rain = 0
KDVS 090000Z 16013G18KT 35/10 A3006 RMK A01 T03510096  RH  022%=      5-min Rain = 0
KDVS 090005Z 16009G14KT 35/10 A3006 RMK A01 T03510096  RH  022%=      5-min Rain = 0
KDVS 090010Z 17012KT 35/09 A3006 RMK A01 T03490093  RH  022%=      5-min Rain = 0
KDVS 090015Z 17012KT 35/09 A3006 RMK A01 T03490092  RH  021%=      5-min Rain = 0
KDVS 090020Z 17011KT 35/09 A3006 RMK A01 T03470093  RH  022%=      5-min Rain = 0
KDVS 090025Z 16010KT 35/09 A3006 RMK A01 T03470094  RH  022%=      5-min Rain = 0
KDVS 090030Z 16012G17KT 35/09 A3006 RMK A01 T03450093  RH  022%=      5-min Rain = 0
KDVS 090035Z 16012KT 34/09 A3006 RMK A01 T03440091  RH  022%=      5-min Rain = 0
KDVS 090040Z 16011KT 34/09 A3006 RMK A01 T03430093  RH  022%=      5-min Rain = 0
KDVS 090045Z 15013G18KT 34/10 A3006 RMK A01 T03410095  RH  023%=      5-min Rain = 0
KDVS 090050Z 16012KT 34/10 A3006 RMK A01 T03390095  RH  023%=      5-min Rain = 0
KDVS 090055Z 16011G16KT 34/10 A3006 RMK A01 T03380097  RH  024%=      5-min Rain = 0
KDVS 090100Z 16010KT 34/10 A3006 RMK A01 T03360098  RH  024%=      5-min Rain = 0
KDVS 090105Z 15011KT 33/10 A3006 RMK A01 T03340098  RH  024%=      5-min Rain = 0
KDVS 090110Z 16011KT 33/10 A3006 RMK A01 T03310097  RH  024%=      5-min Rain = 0
KDVS 090115Z 15011KT 33/10 A3007 RMK A01 T03280096  RH  025%=      5-min Rain = 0
KDVS 090120Z 15009KT 32/10 A3007 RMK A01 T03230096  RH  026%=      5-min Rain = 0
KDVS 090125Z 16008KT 32/10 A3007 RMK A01 T03190099  RH  027%=      5-min Rain = 0
KDVS 090130Z 16008KT 32/10 A3007 RMK A01 T03150104  RH  028%=      5-min Rain = 0
KDVS 090135Z 16009KT 31/11 A3007 RMK A01 T03130107  RH  029%=      5-min Rain = 0
KDVS 090140Z 16011KT 31/11 A3007 RMK A01 T03140107  RH  029%=      5-min Rain = 0
KDVS 090145Z 16010KT 31/11 A3008 RMK A01 T03140109  RH  029%=      5-min Rain = 0
KDVS 090150Z 16010KT 31/11 A3008 RMK A01 T03120112  RH  030%=      5-min Rain = 0
KDVS 090155Z 16009KT 31/11 A3008 RMK A01 T03100114  RH  031%=      5-min Rain = 0
KDVS 090200Z 16010KT 31/11 A3008 RMK A01 T03080114  RH  031%=      5-min Rain = 0
KDVS 090205Z 16009KT 31/12 A3008 RMK A01 T03070115  RH  032%=      5-min Rain = 0
KDVS 090210Z 16009KT 30/12 A3008 RMK A01 T03040115  RH  032%=      5-min Rain = 0
KDVS 090215Z 16009KT 30/12 A3008 RMK A01 T03020116  RH  033%=      5-min Rain = 0
KDVS 090220Z 16009KT 30/12 A3009 RMK A01 T03000117  RH  033%=      5-min Rain = 0
KDVS 090225Z 16009KT 30/12 A3009 RMK A01 T03000117  RH  034%=      5-min Rain = 0
KDVS 090230Z 16009KT 30/12 A3009 RMK A01 T02990118  RH  034%=      5-min Rain = 0
KDVS 090235Z 16008KT 30/12 A3009 RMK A01 T02970119  RH  035%=      5-min Rain = 0
KDVS 090240Z 16008KT 30/12 A301 RMK A01 T02950120  RH  035%=      5-min Rain = 0
KDVS 090245Z 16008KT 29/12 A301 RMK A01 T02930122  RH  036%=      5-min Rain = 0
KDVS 090250Z 16009KT 29/12 A301 RMK A01 T02910123  RH  037%=      5-min Rain = 0
KDVS 090255Z 15008KT 29/12 A301 RMK A01 T02890124  RH  038%=      5-min Rain = 0
KDVS 090300Z 15008KT 28/13 A301 RMK A01 T02840125  RH  039%=      5-min Rain = 0
KDVS 090305Z 16009KT 28/13 A301 RMK A01 T02830126  RH  039%=      5-min Rain = 0
KDVS 090310Z 16009KT 28/13 A3011 RMK A01 T02840126  RH  039%=      5-min Rain = 0
KDVS 090315Z 16010KT 29/13 A3011 RMK A01 T02860126  RH  039%=      5-min Rain = 0
KDVS 090320Z 15011KT 29/13 A3011 RMK A01 T02860127  RH  039%=      5-min Rain = 0
KDVS 090325Z 16011KT 29/13 A3011 RMK A01 T02870127  RH  039%=      5-min Rain = 0
KDVS 090330Z 16011KT 29/13 A3011 RMK A01 T02870128  RH  039%=      5-min Rain = 0
KDVS 090335Z 16011KT 29/13 A3011 RMK A01 T02870128  RH  039%=      5-min Rain = 0
KDVS 090340Z 16012KT 29/13 A3011 RMK A01 T02860128  RH  039%=      5-min Rain = 0
KDVS 090345Z 15011KT 29/13 A3011 RMK A01 T02850128  RH  040%=      5-min Rain = 0
KDVS 090350Z 15013KT 29/13 A3011 RMK A01 T02850128  RH  040%=      5-min Rain = 0
KDVS 090355Z 16011KT 29/13 A3011 RMK A01 T02850128  RH  039%=      5-min Rain = 0
KDVS 090400Z 16012KT 28/13 A3012 RMK A01 T02840128  RH  040%=      5-min Rain = 0
KDVS 090405Z 16011KT 28/13 A3012 RMK A01 T02830128  RH  040%=      5-min Rain = 0
KDVS 090410Z 16011KT 28/13 A3012 RMK A01 T02820129  RH  040%=      5-min Rain = 0
KDVS 090415Z 16011KT 28/13 A3012 RMK A01 T02800129  RH  041%=      5-min Rain = 0
KDVS 090420Z 16011G16KT 28/13 A3012 RMK A01 T02780129  RH  041%=      5-min Rain = 0
KDVS 090425Z 16010KT 28/13 A3012 RMK A01 T02760129  RH  042%=      5-min Rain = 0
KDVS 090430Z 16012KT 28/13 A3011 RMK A01 T02750128  RH  042%=      5-min Rain = 0
KDVS 090435Z 16011G16KT 28/13 A3012 RMK A01 T02750128  RH  042%=      5-min Rain = 0
KDVS 090440Z 16012KT 28/13 A3012 RMK A01 T02750127  RH  042%=      5-min Rain = 0
KDVS 090445Z 16012G17KT 27/13 A3012 RMK A01 T02740126  RH  041%=      5-min Rain = 0
KDVS 090450Z 16012KT 27/13 A3012 RMK A01 T02730126  RH  042%=      5-min Rain = 0
KDVS 090455Z 16012KT 27/13 A3012 RMK A01 T02710126  RH  042%=      5-min Rain = 0

Page generated in 0.0166 seconds.